sensor_id;sensor_type;location;lat;lon;timestamp;P1;durP1;ratioP1;P2;durP2;ratioP2
15655;SDS011;7928;43.614;1.456;2023-05-10T00:01:35;10.53;;;3.40;;
15655;SDS011;7928;43.614;1.456;2023-05-10T00:04:02;12.20;;;3.57;;
15655;SDS011;7928;43.614;1.456;2023-05-10T00:06:29;14.33;;;3.43;;
15655;SDS011;7928;43.614;1.456;2023-05-10T00:08:58;13.07;;;3.10;;
15655;SDS011;7928;43.614;1.456;2023-05-10T00:11:25;14.03;;;3.90;;
15655;SDS011;7928;43.614;1.456;2023-05-10T00:13:52;15.40;;;3.50;;
15655;SDS011;7928;43.614;1.456;2023-05-10T00:16:19;12.57;;;3.30;;
15655;SDS011;7928;43.614;1.456;2023-05-10T00:18:46;18.97;;;3.50;;
15655;SDS011;7928;43.614;1.456;2023-05-10T00:21:13;14.23;;;3.70;;
15655;SDS011;7928;43.614;1.456;2023-05-10T00:23:40;13.77;;;3.33;;
15655;SDS011;7928;43.614;1.456;2023-05-10T00:26:08;19.27;;;4.30;;
15655;SDS011;7928;43.614;1.456;2023-05-10T00:28:35;13.50;;;3.53;;
15655;SDS011;7928;43.614;1.456;2023-05-10T00:31:02;16.47;;;3.60;;
15655;SDS011;7928;43.614;1.456;2023-05-10T00:33:30;15.73;;;3.97;;
15655;SDS011;7928;43.614;1.456;2023-05-10T00:35:57;23.87;;;4.27;;
15655;SDS011;7928;43.614;1.456;2023-05-10T00:38:24;16.10;;;3.43;;
15655;SDS011;7928;43.614;1.456;2023-05-10T00:40:51;21.57;;;4.23;;
15655;SDS011;7928;43.614;1.456;2023-05-10T00:43:19;18.40;;;4.23;;
15655;SDS011;7928;43.614;1.456;2023-05-10T00:45:46;20.80;;;4.63;;
15655;SDS011;7928;43.614;1.456;2023-05-10T00:48:13;16.07;;;3.20;;
15655;SDS011;7928;43.614;1.456;2023-05-10T00:50:40;18.47;;;4.40;;
15655;SDS011;7928;43.614;1.456;2023-05-10T00:53:07;18.43;;;4.60;;
15655;SDS011;7928;43.614;1.456;2023-05-10T00:55:35;15.03;;;4.00;;
15655;SDS011;7928;43.614;1.456;2023-05-10T00:58:02;19.63;;;4.53;;
15655;SDS011;7928;43.614;1.456;2023-05-10T01:00:32;12.53;;;3.23;;
15655;SDS011;7928;43.614;1.456;2023-05-10T01:02:59;18.33;;;3.83;;
15655;SDS011;7928;43.614;1.456;2023-05-10T01:05:26;17.70;;;4.13;;
15655;SDS011;7928;43.614;1.456;2023-05-10T01:07:53;16.07;;;3.30;;
15655;SDS011;7928;43.614;1.456;2023-05-10T01:10:20;17.90;;;3.67;;
15655;SDS011;7928;43.614;1.456;2023-05-10T01:12:48;14.93;;;4.13;;
15655;SDS011;7928;43.614;1.456;2023-05-10T01:15:15;16.10;;;4.27;;
15655;SDS011;7928;43.614;1.456;2023-05-10T01:17:44;17.73;;;4.10;;
15655;SDS011;7928;43.614;1.456;2023-05-10T01:20:14;16.37;;;3.87;;
15655;SDS011;7928;43.614;1.456;2023-05-10T01:28:51;10.37;;;3.00;;
15655;SDS011;7928;43.614;1.456;2023-05-10T01:31:35;14.13;;;3.80;;
15655;SDS011;7928;43.614;1.456;2023-05-10T01:34:32;10.33;;;3.13;;
15655;SDS011;7928;43.614;1.456;2023-05-10T01:37:02;12.97;;;3.13;;
15655;SDS011;7928;43.614;1.456;2023-05-10T01:39:36;14.00;;;3.87;;
15655;SDS011;7928;43.614;1.456;2023-05-10T01:42:11;15.77;;;4.00;;
15655;SDS011;7928;43.614;1.456;2023-05-10T01:44:45;20.20;;;3.93;;
15655;SDS011;7928;43.614;1.456;2023-05-10T01:47:20;12.67;;;3.30;;
15655;SDS011;7928;43.614;1.456;2023-05-10T01:49:53;17.27;;;3.87;;
15655;SDS011;7928;43.614;1.456;2023-05-10T01:52:24;16.97;;;3.80;;
15655;SDS011;7928;43.614;1.456;2023-05-10T01:54:56;15.80;;;3.50;;
15655;SDS011;7928;43.614;1.456;2023-05-10T01:57:31;14.37;;;3.83;;
15655;SDS011;7928;43.614;1.456;2023-05-10T02:00:00;16.30;;;4.10;;
15655;SDS011;7928;43.614;1.456;2023-05-10T02:02:30;14.27;;;3.57;;
15655;SDS011;7928;43.614;1.456;2023-05-10T02:05:03;14.50;;;3.27;;
15655;SDS011;7928;43.614;1.456;2023-05-10T02:07:32;13.93;;;3.83;;
15655;SDS011;7928;43.614;1.456;2023-05-10T02:10:02;17.80;;;3.57;;
15655;SDS011;7928;43.614;1.456;2023-05-10T02:12:30;11.13;;;3.03;;
15655;SDS011;7928;43.614;1.456;2023-05-10T02:14:58;15.97;;;3.47;;
15655;SDS011;7928;43.614;1.456;2023-05-10T02:17:27;15.93;;;3.60;;
15655;SDS011;7928;43.614;1.456;2023-05-10T02:19:56;13.87;;;3.20;;
15655;SDS011;7928;43.614;1.456;2023-05-10T02:22:25;11.83;;;3.73;;
15655;SDS011;7928;43.614;1.456;2023-05-10T02:24:52;13.53;;;3.53;;
15655;SDS011;7928;43.614;1.456;2023-05-10T02:27:21;17.30;;;3.57;;
15655;SDS011;7928;43.614;1.456;2023-05-10T02:29:50;13.20;;;3.40;;
15655;SDS011;7928;43.614;1.456;2023-05-10T02:32:18;17.17;;;4.20;;
15655;SDS011;7928;43.614;1.456;2023-05-10T02:34:47;16.83;;;3.23;;
15655;SDS011;7928;43.614;1.456;2023-05-10T02:37:18;15.70;;;3.93;;
15655;SDS011;7928;43.614;1.456;2023-05-10T02:39:46;15.73;;;3.93;;
15655;SDS011;7928;43.614;1.456;2023-05-10T02:42:16;15.53;;;2.87;;
15655;SDS011;7928;43.614;1.456;2023-05-10T02:44:46;17.73;;;3.23;;
15655;SDS011;7928;43.614;1.456;2023-05-10T02:47:14;11.47;;;3.00;;
15655;SDS011;7928;43.614;1.456;2023-05-10T02:49:41;17.27;;;3.40;;
15655;SDS011;7928;43.614;1.456;2023-05-10T02:52:09;17.23;;;3.97;;
15655;SDS011;7928;43.614;1.456;2023-05-10T02:54:39;17.63;;;3.70;;
15655;SDS011;7928;43.614;1.456;2023-05-10T02:57:10;13.90;;;3.60;;
15655;SDS011;7928;43.614;1.456;2023-05-10T02:59:48;13.50;;;3.23;;
15655;SDS011;7928;43.614;1.456;2023-05-10T03:02:15;14.63;;;4.20;;
15655;SDS011;7928;43.614;1.456;2023-05-10T03:04:42;19.40;;;3.67;;
15655;SDS011;7928;43.614;1.456;2023-05-10T03:07:09;16.83;;;4.40;;
15655;SDS011;7928;43.614;1.456;2023-05-10T03:09:36;14.93;;;4.00;;
15655;SDS011;7928;43.614;1.456;2023-05-10T03:12:07;16.60;;;3.57;;
15655;SDS011;7928;43.614;1.456;2023-05-10T03:14:42;18.23;;;3.80;;
15655;SDS011;7928;43.614;1.456;2023-05-10T03:17:25;15.03;;;2.80;;
15655;SDS011;7928;43.614;1.456;2023-05-10T03:19:56;11.30;;;3.07;;
15655;SDS011;7928;43.614;1.456;2023-05-10T03:22:30;12.77;;;2.53;;
15655;SDS011;7928;43.614;1.456;2023-05-10T03:25:03;11.07;;;2.70;;
15655;SDS011;7928;43.614;1.456;2023-05-10T03:27:32;12.80;;;2.93;;
15655;SDS011;7928;43.614;1.456;2023-05-10T03:30:01;13.60;;;2.20;;
15655;SDS011;7928;43.614;1.456;2023-05-10T03:32:29;9.60;;;1.90;;
15655;SDS011;7928;43.614;1.456;2023-05-10T03:34:57;11.93;;;1.80;;
15655;SDS011;7928;43.614;1.456;2023-05-10T03:37:24;12.07;;;1.80;;
15655;SDS011;7928;43.614;1.456;2023-05-10T03:39:51;12.23;;;2.70;;
15655;SDS011;7928;43.614;1.456;2023-05-10T03:42:19;10.67;;;2.80;;
15655;SDS011;7928;43.614;1.456;2023-05-10T03:44:46;13.87;;;2.30;;
15655;SDS011;7928;43.614;1.456;2023-05-10T03:47:14;9.97;;;2.60;;
15655;SDS011;7928;43.614;1.456;2023-05-10T03:49:41;10.37;;;2.03;;
15655;SDS011;7928;43.614;1.456;2023-05-10T03:52:08;10.27;;;2.47;;
15655;SDS011;7928;43.614;1.456;2023-05-10T03:54:36;11.77;;;2.63;;
15655;SDS011;7928;43.614;1.456;2023-05-10T03:57:03;7.40;;;2.07;;
15655;SDS011;7928;43.614;1.456;2023-05-10T03:59:31;17.50;;;2.50;;
15655;SDS011;7928;43.614;1.456;2023-05-10T04:01:58;12.10;;;2.37;;
15655;SDS011;7928;43.614;1.456;2023-05-10T04:04:25;8.00;;;1.93;;
15655;SDS011;7928;43.614;1.456;2023-05-10T04:06:52;16.37;;;2.17;;
15655;SDS011;7928;43.614;1.456;2023-05-10T04:09:19;9.77;;;2.10;;
15655;SDS011;7928;43.614;1.456;2023-05-10T04:11:46;10.80;;;2.10;;
15655;SDS011;7928;43.614;1.456;2023-05-10T04:14:13;11.30;;;2.40;;
15655;SDS011;7928;43.614;1.456;2023-05-10T04:16:42;13.17;;;2.63;;
15655;SDS011;7928;43.614;1.456;2023-05-10T04:19:09;7.63;;;2.10;;
15655;SDS011;7928;43.614;1.456;2023-05-10T04:21:36;12.87;;;2.47;;
15655;SDS011;7928;43.614;1.456;2023-05-10T04:24:04;13.00;;;2.83;;
15655;SDS011;7928;43.614;1.456;2023-05-10T04:26:31;14.80;;;2.73;;
15655;SDS011;7928;43.614;1.456;2023-05-10T04:28:58;12.00;;;2.50;;
15655;SDS011;7928;43.614;1.456;2023-05-10T04:31:25;7.90;;;2.27;;
15655;SDS011;7928;43.614;1.456;2023-05-10T04:33:54;16.20;;;3.53;;
15655;SDS011;7928;43.614;1.456;2023-05-10T04:36:21;13.03;;;2.47;;
15655;SDS011;7928;43.614;1.456;2023-05-10T04:38:48;13.40;;;3.03;;
15655;SDS011;7928;43.614;1.456;2023-05-10T04:41:15;9.93;;;2.70;;
15655;SDS011;7928;43.614;1.456;2023-05-10T04:43:42;12.47;;;2.60;;
15655;SDS011;7928;43.614;1.456;2023-05-10T04:46:09;10.00;;;2.37;;
15655;SDS011;7928;43.614;1.456;2023-05-10T04:48:36;10.50;;;3.50;;
15655;SDS011;7928;43.614;1.456;2023-05-10T04:51:04;12.00;;;2.43;;
15655;SDS011;7928;43.614;1.456;2023-05-10T04:53:31;11.20;;;2.37;;
15655;SDS011;7928;43.614;1.456;2023-05-10T04:55:59;8.67;;;2.30;;
15655;SDS011;7928;43.614;1.456;2023-05-10T04:58:26;11.67;;;2.83;;
15655;SDS011;7928;43.614;1.456;2023-05-10T05:00:53;9.00;;;2.80;;
15655;SDS011;7928;43.614;1.456;2023-05-10T05:03:20;14.73;;;3.23;;
15655;SDS011;7928;43.614;1.456;2023-05-10T05:05:47;11.60;;;3.10;;
15655;SDS011;7928;43.614;1.456;2023-05-10T05:08:15;13.53;;;2.93;;
15655;SDS011;7928;43.614;1.456;2023-05-10T05:10:42;15.93;;;2.30;;
15655;SDS011;7928;43.614;1.456;2023-05-10T05:13:09;13.10;;;2.70;;
15655;SDS011;7928;43.614;1.456;2023-05-10T05:15:38;15.70;;;2.57;;
15655;SDS011;7928;43.614;1.456;2023-05-10T05:18:05;11.50;;;2.63;;
15655;SDS011;7928;43.614;1.456;2023-05-10T05:20:32;15.63;;;3.30;;
15655;SDS011;7928;43.614;1.456;2023-05-10T05:22:59;9.60;;;2.57;;
15655;SDS011;7928;43.614;1.456;2023-05-10T05:25:27;12.93;;;2.50;;
15655;SDS011;7928;43.614;1.456;2023-05-10T05:27:54;10.30;;;2.47;;
15655;SDS011;7928;43.614;1.456;2023-05-10T05:30:21;15.60;;;3.23;;
15655;SDS011;7928;43.614;1.456;2023-05-10T05:32:48;19.13;;;2.93;;
15655;SDS011;7928;43.614;1.456;2023-05-10T05:35:15;12.73;;;3.67;;
15655;SDS011;7928;43.614;1.456;2023-05-10T05:37:43;12.03;;;2.80;;
15655;SDS011;7928;43.614;1.456;2023-05-10T05:40:12;14.07;;;2.73;;
15655;SDS011;7928;43.614;1.456;2023-05-10T05:42:40;9.57;;;2.80;;
15655;SDS011;7928;43.614;1.456;2023-05-10T05:45:08;13.53;;;3.03;;
15655;SDS011;7928;43.614;1.456;2023-05-10T05:47:39;18.27;;;3.70;;
15655;SDS011;7928;43.614;1.456;2023-05-10T05:50:06;12.27;;;3.60;;
15655;SDS011;7928;43.614;1.456;2023-05-10T05:52:33;12.00;;;2.97;;
15655;SDS011;7928;43.614;1.456;2023-05-10T05:55:01;10.87;;;3.13;;
15655;SDS011;7928;43.614;1.456;2023-05-10T05:57:29;10.13;;;2.40;;
15655;SDS011;7928;43.614;1.456;2023-05-10T05:59:58;16.77;;;3.37;;
15655;SDS011;7928;43.614;1.456;2023-05-10T06:02:25;12.10;;;3.13;;
15655;SDS011;7928;43.614;1.456;2023-05-10T06:04:52;21.93;;;4.00;;
15655;SDS011;7928;43.614;1.456;2023-05-10T06:07:19;24.47;;;4.00;;
15655;SDS011;7928;43.614;1.456;2023-05-10T06:09:46;24.53;;;4.50;;
15655;SDS011;7928;43.614;1.456;2023-05-10T06:12:13;16.47;;;3.73;;
15655;SDS011;7928;43.614;1.456;2023-05-10T06:14:40;16.10;;;3.57;;
15655;SDS011;7928;43.614;1.456;2023-05-10T06:17:08;13.13;;;3.20;;
15655;SDS011;7928;43.614;1.456;2023-05-10T06:19:35;9.80;;;2.30;;
15655;SDS011;7928;43.614;1.456;2023-05-10T06:22:02;12.77;;;3.17;;
15655;SDS011;7928;43.614;1.456;2023-05-10T06:24:29;13.30;;;3.53;;
15655;SDS011;7928;43.614;1.456;2023-05-10T06:26:56;8.17;;;2.70;;
15655;SDS011;7928;43.614;1.456;2023-05-10T06:29:25;15.90;;;3.03;;
15655;SDS011;7928;43.614;1.456;2023-05-10T06:31:52;20.00;;;3.00;;
15655;SDS011;7928;43.614;1.456;2023-05-10T06:34:20;13.43;;;2.63;;
15655;SDS011;7928;43.614;1.456;2023-05-10T06:36:47;13.83;;;3.23;;
15655;SDS011;7928;43.614;1.456;2023-05-10T06:39:14;18.13;;;2.97;;
15655;SDS011;7928;43.614;1.456;2023-05-10T06:41:42;8.60;;;2.33;;
15655;SDS011;7928;43.614;1.456;2023-05-10T06:44:09;12.00;;;2.60;;
15655;SDS011;7928;43.614;1.456;2023-05-10T06:46:36;14.60;;;2.60;;
15655;SDS011;7928;43.614;1.456;2023-05-10T06:49:03;13.20;;;3.03;;
15655;SDS011;7928;43.614;1.456;2023-05-10T06:51:31;15.10;;;2.47;;
15655;SDS011;7928;43.614;1.456;2023-05-10T06:53:58;12.10;;;2.43;;
15655;SDS011;7928;43.614;1.456;2023-05-10T06:56:25;10.70;;;2.80;;
15655;SDS011;7928;43.614;1.456;2023-05-10T06:58:52;10.37;;;2.83;;
15655;SDS011;7928;43.614;1.456;2023-05-10T07:01:19;18.20;;;3.20;;
15655;SDS011;7928;43.614;1.456;2023-05-10T07:03:46;12.67;;;3.63;;
15655;SDS011;7928;43.614;1.456;2023-05-10T07:06:13;16.33;;;3.53;;
15655;SDS011;7928;43.614;1.456;2023-05-10T07:08:42;15.30;;;3.23;;
15655;SDS011;7928;43.614;1.456;2023-05-10T07:11:09;15.33;;;3.13;;
15655;SDS011;7928;43.614;1.456;2023-05-10T07:13:36;8.33;;;2.67;;
15655;SDS011;7928;43.614;1.456;2023-05-10T07:16:06;17.10;;;3.57;;
15655;SDS011;7928;43.614;1.456;2023-05-10T07:18:33;13.80;;;5.13;;
15655;SDS011;7928;43.614;1.456;2023-05-10T07:21:00;11.30;;;3.80;;
15655;SDS011;7928;43.614;1.456;2023-05-10T07:23:28;10.27;;;3.90;;
15655;SDS011;7928;43.614;1.456;2023-05-10T07:25:57;16.87;;;3.43;;
15655;SDS011;7928;43.614;1.456;2023-05-10T07:28:24;14.70;;;3.17;;
15655;SDS011;7928;43.614;1.456;2023-05-10T07:30:51;14.03;;;3.00;;
15655;SDS011;7928;43.614;1.456;2023-05-10T07:33:18;11.67;;;2.73;;
15655;SDS011;7928;43.614;1.456;2023-05-10T07:35:45;10.67;;;2.50;;
15655;SDS011;7928;43.614;1.456;2023-05-10T07:38:12;13.80;;;3.00;;
15655;SDS011;7928;43.614;1.456;2023-05-10T07:40:39;15.00;;;3.53;;
15655;SDS011;7928;43.614;1.456;2023-05-10T07:43:07;11.00;;;2.20;;
15655;SDS011;7928;43.614;1.456;2023-05-10T07:45:34;11.77;;;3.03;;
15655;SDS011;7928;43.614;1.456;2023-05-10T07:48:01;17.70;;;3.10;;
15655;SDS011;7928;43.614;1.456;2023-05-10T07:50:29;14.77;;;3.17;;
15655;SDS011;7928;43.614;1.456;2023-05-10T07:52:56;15.30;;;4.00;;
15655;SDS011;7928;43.614;1.456;2023-05-10T07:55:23;11.53;;;2.60;;
15655;SDS011;7928;43.614;1.456;2023-05-10T07:57:51;9.83;;;2.70;;
15655;SDS011;7928;43.614;1.456;2023-05-10T08:00:19;14.10;;;3.60;;
15655;SDS011;7928;43.614;1.456;2023-05-10T08:02:47;12.67;;;2.80;;
15655;SDS011;7928;43.614;1.456;2023-05-10T08:05:14;13.97;;;3.67;;
15655;SDS011;7928;43.614;1.456;2023-05-10T08:07:41;18.73;;;3.10;;
15655;SDS011;7928;43.614;1.456;2023-05-10T08:10:08;12.60;;;2.73;;
15655;SDS011;7928;43.614;1.456;2023-05-10T08:12:37;11.80;;;3.07;;
15655;SDS011;7928;43.614;1.456;2023-05-10T08:15:04;13.60;;;2.60;;
15655;SDS011;7928;43.614;1.456;2023-05-10T08:17:34;14.33;;;3.47;;
15655;SDS011;7928;43.614;1.456;2023-05-10T08:20:01;10.37;;;2.73;;
15655;SDS011;7928;43.614;1.456;2023-05-10T08:22:28;12.20;;;2.40;;
15655;SDS011;7928;43.614;1.456;2023-05-10T08:24:55;10.93;;;2.80;;
15655;SDS011;7928;43.614;1.456;2023-05-10T08:27:22;10.87;;;2.53;;
15655;SDS011;7928;43.614;1.456;2023-05-10T08:29:49;17.50;;;3.87;;
15655;SDS011;7928;43.614;1.456;2023-05-10T08:32:16;18.50;;;3.23;;
15655;SDS011;7928;43.614;1.456;2023-05-10T08:34:44;12.63;;;2.60;;
15655;SDS011;7928;43.614;1.456;2023-05-10T08:37:11;16.47;;;3.67;;
15655;SDS011;7928;43.614;1.456;2023-05-10T08:39:38;11.67;;;2.63;;
15655;SDS011;7928;43.614;1.456;2023-05-10T08:42:05;10.37;;;2.07;;
15655;SDS011;7928;43.614;1.456;2023-05-10T08:44:35;12.83;;;2.70;;
15655;SDS011;7928;43.614;1.456;2023-05-10T08:47:04;11.93;;;2.00;;
15655;SDS011;7928;43.614;1.456;2023-05-10T08:49:32;9.73;;;2.50;;
15655;SDS011;7928;43.614;1.456;2023-05-10T08:52:02;9.67;;;1.67;;
15655;SDS011;7928;43.614;1.456;2023-05-10T08:54:31;12.53;;;2.90;;
15655;SDS011;7928;43.614;1.456;2023-05-10T08:56:59;7.87;;;2.33;;
15655;SDS011;7928;43.614;1.456;2023-05-10T08:59:27;13.93;;;2.63;;
15655;SDS011;7928;43.614;1.456;2023-05-10T09:01:55;9.90;;;2.33;;
15655;SDS011;7928;43.614;1.456;2023-05-10T09:04:24;11.67;;;2.67;;
15655;SDS011;7928;43.614;1.456;2023-05-10T09:06:51;10.10;;;2.37;;
15655;SDS011;7928;43.614;1.456;2023-05-10T09:09:20;11.37;;;2.63;;
15655;SDS011;7928;43.614;1.456;2023-05-10T09:11:48;8.83;;;2.20;;
15655;SDS011;7928;43.614;1.456;2023-05-10T09:14:15;11.10;;;2.37;;
15655;SDS011;7928;43.614;1.456;2023-05-10T09:16:42;10.00;;;2.23;;
15655;SDS011;7928;43.614;1.456;2023-05-10T09:19:10;9.60;;;2.50;;
15655;SDS011;7928;43.614;1.456;2023-05-10T09:21:37;13.30;;;2.27;;
15655;SDS011;7928;43.614;1.456;2023-05-10T09:24:04;15.10;;;3.03;;
15655;SDS011;7928;43.614;1.456;2023-05-10T09:26:33;9.83;;;2.03;;
15655;SDS011;7928;43.614;1.456;2023-05-10T09:29:01;6.40;;;2.27;;
15655;SDS011;7928;43.614;1.456;2023-05-10T09:31:43;11.00;;;2.30;;
15655;SDS011;7928;43.614;1.456;2023-05-10T09:34:11;9.13;;;2.33;;
15655;SDS011;7928;43.614;1.456;2023-05-10T09:36:50;9.50;;;2.67;;
15655;SDS011;7928;43.614;1.456;2023-05-10T09:39:18;6.00;;;1.77;;
15655;SDS011;7928;43.614;1.456;2023-05-10T09:41:46;7.87;;;2.00;;
15655;SDS011;7928;43.614;1.456;2023-05-10T09:44:16;13.87;;;2.60;;
15655;SDS011;7928;43.614;1.456;2023-05-10T09:46:48;6.47;;;1.97;;
15655;SDS011;7928;43.614;1.456;2023-05-10T09:49:17;12.80;;;2.43;;
15655;SDS011;7928;43.614;1.456;2023-05-10T09:51:45;10.30;;;1.93;;
15655;SDS011;7928;43.614;1.456;2023-05-10T09:54:12;8.83;;;2.30;;
15655;SDS011;7928;43.614;1.456;2023-05-10T09:56:40;7.87;;;1.90;;
15655;SDS011;7928;43.614;1.456;2023-05-10T09:59:10;8.70;;;2.27;;
15655;SDS011;7928;43.614;1.456;2023-05-10T10:01:38;5.53;;;1.60;;
15655;SDS011;7928;43.614;1.456;2023-05-10T10:04:06;6.90;;;2.20;;
15655;SDS011;7928;43.614;1.456;2023-05-10T10:06:36;7.77;;;2.23;;
15655;SDS011;7928;43.614;1.456;2023-05-10T10:09:03;6.43;;;1.93;;
15655;SDS011;7928;43.614;1.456;2023-05-10T10:11:31;6.97;;;1.83;;
15655;SDS011;7928;43.614;1.456;2023-05-10T10:14:00;6.50;;;1.60;;
15655;SDS011;7928;43.614;1.456;2023-05-10T10:16:29;7.43;;;1.80;;
15655;SDS011;7928;43.614;1.456;2023-05-10T10:18:56;6.40;;;1.90;;
15655;SDS011;7928;43.614;1.456;2023-05-10T10:21:24;9.30;;;1.80;;
15655;SDS011;7928;43.614;1.456;2023-05-10T10:23:51;9.50;;;1.90;;
15655;SDS011;7928;43.614;1.456;2023-05-10T10:26:18;5.77;;;1.53;;
15655;SDS011;7928;43.614;1.456;2023-05-10T10:28:48;8.23;;;1.50;;
15655;SDS011;7928;43.614;1.456;2023-05-10T10:31:25;8.60;;;1.63;;
15655;SDS011;7928;43.614;1.456;2023-05-10T10:34:01;7.77;;;1.77;;
15655;SDS011;7928;43.614;1.456;2023-05-10T10:36:32;5.93;;;1.50;;
15655;SDS011;7928;43.614;1.456;2023-05-10T10:39:08;6.20;;;1.50;;
15655;SDS011;7928;43.614;1.456;2023-05-10T10:41:36;7.37;;;1.30;;
15655;SDS011;7928;43.614;1.456;2023-05-10T10:46:59;5.80;;;1.60;;
15655;SDS011;7928;43.614;1.456;2023-05-10T10:49:27;5.70;;;1.33;;
15655;SDS011;7928;43.614;1.456;2023-05-10T10:52:17;7.87;;;1.70;;
15655;SDS011;7928;43.614;1.456;2023-05-10T10:54:51;8.67;;;1.90;;
15655;SDS011;7928;43.614;1.456;2023-05-10T10:57:20;8.30;;;1.70;;
15655;SDS011;7928;43.614;1.456;2023-05-10T10:59:47;6.53;;;2.07;;
15655;SDS011;7928;43.614;1.456;2023-05-10T11:02:37;7.73;;;1.97;;
15655;SDS011;7928;43.614;1.456;2023-05-10T11:08:07;14.27;;;3.30;;
15655;SDS011;7928;43.614;1.456;2023-05-10T11:10:37;11.47;;;2.43;;
15655;SDS011;7928;43.614;1.456;2023-05-10T11:13:05;9.50;;;2.33;;
15655;SDS011;7928;43.614;1.456;2023-05-10T11:15:33;12.07;;;2.67;;
15655;SDS011;7928;43.614;1.456;2023-05-10T11:20:57;10.23;;;2.07;;
15655;SDS011;7928;43.614;1.456;2023-05-10T11:23:31;10.47;;;2.03;;
15655;SDS011;7928;43.614;1.456;2023-05-10T11:25:58;5.07;;;1.73;;
15655;SDS011;7928;43.614;1.456;2023-05-10T11:28:26;8.83;;;2.30;;
15655;SDS011;7928;43.614;1.456;2023-05-10T11:30:54;8.03;;;2.10;;
15655;SDS011;7928;43.614;1.456;2023-05-10T11:33:21;8.63;;;1.87;;
15655;SDS011;7928;43.614;1.456;2023-05-10T11:35:48;6.60;;;1.93;;
15655;SDS011;7928;43.614;1.456;2023-05-10T11:38:16;7.13;;;2.47;;
15655;SDS011;7928;43.614;1.456;2023-05-10T11:40:43;6.33;;;2.00;;
15655;SDS011;7928;43.614;1.456;2023-05-10T11:43:10;8.07;;;2.03;;
15655;SDS011;7928;43.614;1.456;2023-05-10T11:45:37;7.87;;;1.90;;
15655;SDS011;7928;43.614;1.456;2023-05-10T11:48:06;10.53;;;1.80;;
15655;SDS011;7928;43.614;1.456;2023-05-10T11:50:33;6.63;;;1.73;;
15655;SDS011;7928;43.614;1.456;2023-05-10T11:53:00;8.90;;;2.03;;
15655;SDS011;7928;43.614;1.456;2023-05-10T11:55:29;7.73;;;1.53;;
15655;SDS011;7928;43.614;1.456;2023-05-10T11:58:00;5.97;;;1.17;;
15655;SDS011;7928;43.614;1.456;2023-05-10T12:00:28;3.87;;;0.93;;
15655;SDS011;7928;43.614;1.456;2023-05-10T12:02:56;5.03;;;1.40;;
15655;SDS011;7928;43.614;1.456;2023-05-10T12:05:23;4.30;;;1.03;;
15655;SDS011;7928;43.614;1.456;2023-05-10T12:07:51;6.13;;;1.10;;
15655;SDS011;7928;43.614;1.456;2023-05-10T12:10:18;5.93;;;1.10;;
15655;SDS011;7928;43.614;1.456;2023-05-10T12:12:53;4.13;;;1.10;;
15655;SDS011;7928;43.614;1.456;2023-05-10T12:15:22;2.17;;;0.90;;
15655;SDS011;7928;43.614;1.456;2023-05-10T12:17:50;2.30;;;1.10;;
15655;SDS011;7928;43.614;1.456;2023-05-10T12:20:18;3.00;;;1.10;;
15655;SDS011;7928;43.614;1.456;2023-05-10T12:22:47;4.83;;;1.37;;
15655;SDS011;7928;43.614;1.456;2023-05-10T12:25:16;3.50;;;1.05;;
15655;SDS011;7928;43.614;1.456;2023-05-10T12:27:48;3.65;;;1.20;;
15655;SDS011;7928;43.614;1.456;2023-05-10T12:30:20;4.18;;;1.52;;
15655;SDS011;7928;43.614;1.456;2023-05-10T12:32:48;3.95;;;1.05;;
15655;SDS011;7928;43.614;1.456;2023-05-10T12:35:15;2.53;;;0.85;;
15655;SDS011;7928;43.614;1.456;2023-05-10T12:37:45;6.10;;;1.20;;
15655;SDS011;7928;43.614;1.456;2023-05-10T12:40:12;4.75;;;0.93;;
15655;SDS011;7928;43.614;1.456;2023-05-10T12:42:39;7.63;;;2.22;;
15655;SDS011;7928;43.614;1.456;2023-05-10T12:45:07;3.80;;;1.35;;
15655;SDS011;7928;43.614;1.456;2023-05-10T12:47:36;7.35;;;1.80;;
15655;SDS011;7928;43.614;1.456;2023-05-10T12:50:04;4.55;;;1.30;;
15655;SDS011;7928;43.614;1.456;2023-05-10T12:52:32;5.57;;;1.45;;
15655;SDS011;7928;43.614;1.456;2023-05-10T12:54:59;4.13;;;1.20;;
15655;SDS011;7928;43.614;1.456;2023-05-10T12:57:26;4.68;;;1.30;;
15655;SDS011;7928;43.614;1.456;2023-05-10T12:59:53;3.65;;;1.08;;
15655;SDS011;7928;43.614;1.456;2023-05-10T13:02:21;4.80;;;1.10;;
15655;SDS011;7928;43.614;1.456;2023-05-10T13:04:49;2.78;;;1.05;;
15655;SDS011;7928;43.614;1.456;2023-05-10T13:07:17;5.97;;;1.30;;
15655;SDS011;7928;43.614;1.456;2023-05-10T13:09:44;3.83;;;0.80;;
15655;SDS011;7928;43.614;1.456;2023-05-10T13:12:11;4.45;;;0.85;;
15655;SDS011;7928;43.614;1.456;2023-05-10T13:14:38;2.40;;;0.77;;
15655;SDS011;7928;43.614;1.456;2023-05-10T13:17:06;4.63;;;0.90;;
15655;SDS011;7928;43.614;1.456;2023-05-10T13:19:34;7.78;;;0.88;;
15655;SDS011;7928;43.614;1.456;2023-05-10T13:22:02;2.90;;;0.75;;
15655;SDS011;7928;43.614;1.456;2023-05-10T13:24:29;4.20;;;1.20;;
15655;SDS011;7928;43.614;1.456;2023-05-10T13:26:56;2.35;;;1.10;;
15655;SDS011;7928;43.614;1.456;2023-05-10T13:29:24;3.40;;;1.50;;
15655;SDS011;7928;43.614;1.456;2023-05-10T13:31:51;4.18;;;0.93;;
15655;SDS011;7928;43.614;1.456;2023-05-10T13:34:17;3.80;;;1.27;;
15655;SDS011;7928;43.614;1.456;2023-05-10T13:36:46;7.35;;;1.20;;
15655;SDS011;7928;43.614;1.456;2023-05-10T13:39:15;5.55;;;1.10;;
15655;SDS011;7928;43.614;1.456;2023-05-10T13:41:42;2.88;;;0.90;;
15655;SDS011;7928;43.614;1.456;2023-05-10T13:44:09;4.80;;;1.30;;
15655;SDS011;7928;43.614;1.456;2023-05-10T13:46:37;2.85;;;1.25;;
15655;SDS011;7928;43.614;1.456;2023-05-10T13:49:04;1.77;;;0.70;;
15655;SDS011;7928;43.614;1.456;2023-05-10T13:51:33;5.55;;;1.80;;
15655;SDS011;7928;43.614;1.456;2023-05-10T13:54:00;2.42;;;0.93;;
15655;SDS011;7928;43.614;1.456;2023-05-10T13:56:28;3.47;;;1.00;;
15655;SDS011;7928;43.614;1.456;2023-05-10T13:58:56;7.75;;;1.00;;
15655;SDS011;7928;43.614;1.456;2023-05-10T14:01:23;5.90;;;1.50;;
15655;SDS011;7928;43.614;1.456;2023-05-10T14:03:50;10.15;;;1.92;;
15655;SDS011;7928;43.614;1.456;2023-05-10T14:06:17;5.97;;;1.47;;
15655;SDS011;7928;43.614;1.456;2023-05-10T14:08:44;4.83;;;1.47;;
15655;SDS011;7928;43.614;1.456;2023-05-10T14:11:11;4.63;;;1.38;;
15655;SDS011;7928;43.614;1.456;2023-05-10T14:13:40;4.73;;;1.43;;
15655;SDS011;7928;43.614;1.456;2023-05-10T14:16:07;4.45;;;1.48;;
15655;SDS011;7928;43.614;1.456;2023-05-10T14:18:34;4.00;;;0.93;;
15655;SDS011;7928;43.614;1.456;2023-05-10T14:21:01;4.03;;;1.23;;
15655;SDS011;7928;43.614;1.456;2023-05-10T14:23:29;4.38;;;1.85;;
15655;SDS011;7928;43.614;1.456;2023-05-10T14:25:56;4.17;;;1.07;;
15655;SDS011;7928;43.614;1.456;2023-05-10T14:28:23;2.97;;;0.90;;
15655;SDS011;7928;43.614;1.456;2023-05-10T14:30:51;5.43;;;1.47;;
15655;SDS011;7928;43.614;1.456;2023-05-10T14:33:18;4.83;;;1.30;;
15655;SDS011;7928;43.614;1.456;2023-05-10T14:35:45;4.80;;;1.93;;
15655;SDS011;7928;43.614;1.456;2023-05-10T14:38:13;6.60;;;1.20;;
15655;SDS011;7928;43.614;1.456;2023-05-10T14:40:40;4.03;;;1.13;;
15655;SDS011;7928;43.614;1.456;2023-05-10T14:43:07;5.17;;;2.07;;
15655;SDS011;7928;43.614;1.456;2023-05-10T14:45:34;3.77;;;1.00;;
15655;SDS011;7928;43.614;1.456;2023-05-10T14:48:03;3.47;;;1.17;;
15655;SDS011;7928;43.614;1.456;2023-05-10T14:50:30;6.40;;;1.67;;
15655;SDS011;7928;43.614;1.456;2023-05-10T14:52:58;5.93;;;1.13;;
15655;SDS011;7928;43.614;1.456;2023-05-10T14:55:25;7.23;;;1.10;;
15655;SDS011;7928;43.614;1.456;2023-05-10T14:57:52;2.50;;;0.93;;
15655;SDS011;7928;43.614;1.456;2023-05-10T15:00:19;5.00;;;1.20;;
15655;SDS011;7928;43.614;1.456;2023-05-10T15:02:47;4.10;;;0.90;;
15655;SDS011;7928;43.614;1.456;2023-05-10T15:05:15;4.73;;;1.30;;
15655;SDS011;7928;43.614;1.456;2023-05-10T15:07:42;5.90;;;1.47;;
15655;SDS011;7928;43.614;1.456;2023-05-10T15:10:09;5.40;;;1.10;;
15655;SDS011;7928;43.614;1.456;2023-05-10T15:12:37;6.10;;;1.30;;
15655;SDS011;7928;43.614;1.456;2023-05-10T15:15:04;4.00;;;1.03;;